sensor_id;sensor_type;location;lat;lon;timestamp;pressure;altitude;pressure_sealevel;temperature;humidity
37068;BME280;22982;42.848;25.468;2023-10-13T00:00:56;96699.75;;;7.35;100.00
37068;BME280;22982;42.848;25.468;2023-10-13T00:06:00;96677.59;;;7.25;100.00
37068;BME280;22982;42.848;25.468;2023-10-13T00:11:06;96692.84;;;7.34;100.00
37068;BME280;22982;42.848;25.468;2023-10-13T00:16:11;96688.75;;;7.06;100.00
37068;BME280;22982;42.848;25.468;2023-10-13T00:21:20;96688.31;;;6.95;100.00
37068;BME280;22982;42.848;25.468;2023-10-13T00:26:43;96660.78;;;6.88;100.00
37068;BME280;22982;42.848;25.468;2023-10-13T00:31:46;96692.56;;;7.20;100.00
37068;BME280;22982;42.848;25.468;2023-10-13T00:36:51;96695.56;;;7.31;100.00
37068;BME280;22982;42.848;25.468;2023-10-13T00:42:15;96689.94;;;7.20;100.00
37068;BME280;22982;42.848;25.468;2023-10-13T00:47:22;96695.53;;;7.11;100.00
37068;BME280;22982;42.848;25.468;2023-10-13T00:52:46;96694.88;;;7.05;100.00
37068;BME280;22982;42.848;25.468;2023-10-13T00:57:55;96688.63;;;7.09;100.00
37068;BME280;22982;42.848;25.468;2023-10-13T01:02:59;96659.41;;;7.01;100.00
37068;BME280;22982;42.848;25.468;2023-10-13T01:13:30;96672.44;;;7.01;100.00
37068;BME280;22982;42.848;25.468;2023-10-13T01:18:34;96674.25;;;6.99;100.00
37068;BME280;22982;42.848;25.468;2023-10-13T01:23:50;96673.16;;;7.05;100.00
37068;BME280;22982;42.848;25.468;2023-10-13T01:28:58;96682.50;;;7.11;100.00
37068;BME280;22982;42.848;25.468;2023-10-13T01:34:00;96628.03;;;6.81;100.00
37068;BME280;22982;42.848;25.468;2023-10-13T01:39:03;96666.97;;;7.07;100.00
37068;BME280;22982;42.848;25.468;2023-10-13T01:44:06;96673.91;;;7.08;100.00
37068;BME280;22982;42.848;25.468;2023-10-13T01:49:11;96706.63;;;7.16;100.00
37068;BME280;22982;42.848;25.468;2023-10-13T01:54:14;96686.78;;;6.89;100.00
37068;BME280;22982;42.848;25.468;2023-10-13T01:59:19;96674.59;;;6.90;100.00
37068;BME280;22982;42.848;25.468;2023-10-13T02:04:22;96659.47;;;6.78;100.00
37068;BME280;22982;42.848;25.468;2023-10-13T02:09:25;96683.56;;;6.83;100.00
37068;BME280;22982;42.848;25.468;2023-10-13T02:14:28;96677.50;;;6.82;100.00
37068;BME280;22982;42.848;25.468;2023-10-13T02:19:30;96679.94;;;6.87;100.00
37068;BME280;22982;42.848;25.468;2023-10-13T02:24:33;96689.72;;;6.82;100.00
37068;BME280;22982;42.848;25.468;2023-10-13T02:29:36;96682.25;;;6.73;100.00
37068;BME280;22982;42.848;25.468;2023-10-13T02:34:41;96694.53;;;6.69;100.00
37068;BME280;22982;42.848;25.468;2023-10-13T02:39:46;96678.19;;;6.65;100.00
37068;BME280;22982;42.848;25.468;2023-10-13T02:44:52;96691.22;;;6.65;100.00
37068;BME280;22982;42.848;25.468;2023-10-13T02:49:58;96677.38;;;6.63;100.00
37068;BME280;22982;42.848;25.468;2023-10-13T02:55:03;96675.91;;;6.56;100.00
37068;BME280;22982;42.848;25.468;2023-10-13T03:00:11;96639.56;;;6.29;100.00
37068;BME280;22982;42.848;25.468;2023-10-13T03:05:14;96678.84;;;6.70;100.00
37068;BME280;22982;42.848;25.468;2023-10-13T03:10:20;96668.88;;;6.58;100.00
37068;BME280;22982;42.848;25.468;2023-10-13T03:15:23;96681.41;;;6.48;100.00
37068;BME280;22982;42.848;25.468;2023-10-13T03:20:33;96673.06;;;6.62;100.00
37068;BME280;22982;42.848;25.468;2023-10-13T03:25:36;96665.75;;;6.48;100.00
37068;BME280;22982;42.848;25.468;2023-10-13T03:30:55;96686.78;;;6.67;100.00
37068;BME280;22982;42.848;25.468;2023-10-13T03:36:04;96669.34;;;6.46;100.00
37068;BME280;22982;42.848;25.468;2023-10-13T03:41:08;96693.81;;;6.42;100.00
37068;BME280;22982;42.848;25.468;2023-10-13T03:46:21;96679.53;;;6.52;100.00
37068;BME280;22982;42.848;25.468;2023-10-13T03:51:24;96687.69;;;6.43;100.00
37068;BME280;22982;42.848;25.468;2023-10-13T03:56:34;96710.59;;;6.35;100.00
37068;BME280;22982;42.848;25.468;2023-10-13T04:01:44;96692.75;;;6.24;100.00
37068;BME280;22982;42.848;25.468;2023-10-13T04:06:54;96714.72;;;6.40;100.00
37068;BME280;22982;42.848;25.468;2023-10-13T04:12:15;96689.41;;;6.20;100.00
37068;BME280;22982;42.848;25.468;2023-10-13T04:17:44;96691.75;;;6.26;100.00
37068;BME280;22982;42.848;25.468;2023-10-13T04:22:48;96684.06;;;6.23;100.00
37068;BME280;22982;42.848;25.468;2023-10-13T04:27:52;96681.78;;;6.38;100.00
37068;BME280;22982;42.848;25.468;2023-10-13T04:33:13;96679.09;;;6.41;100.00
37068;BME280;22982;42.848;25.468;2023-10-13T04:38:48;96683.69;;;6.58;100.00
37068;BME280;22982;42.848;25.468;2023-10-13T04:44:02;96696.31;;;6.68;100.00
37068;BME280;22982;42.848;25.468;2023-10-13T04:49:26;96693.63;;;6.70;100.00
37068;BME280;22982;42.848;25.468;2023-10-13T04:54:52;96690.53;;;6.60;100.00
37068;BME280;22982;42.848;25.468;2023-10-13T05:00:13;96704.75;;;6.51;100.00
37068;BME280;22982;42.848;25.468;2023-10-13T05:05:19;96688.72;;;6.39;100.00
37068;BME280;22982;42.848;25.468;2023-10-13T05:10:29;96722.59;;;6.84;100.00
37068;BME280;22982;42.848;25.468;2023-10-13T05:15:50;96717.66;;;7.00;100.00
37068;BME280;22982;42.848;25.468;2023-10-13T05:21:13;96725.78;;;7.15;100.00
37068;BME280;22982;42.848;25.468;2023-10-13T05:26:34;96733.75;;;7.34;100.00
37068;BME280;22982;42.848;25.468;2023-10-13T05:31:56;96748.41;;;7.36;100.00
37068;BME280;22982;42.848;25.468;2023-10-13T05:37:17;96716.69;;;7.25;100.00
37068;BME280;22982;42.848;25.468;2023-10-13T05:42:59;96739.91;;;7.53;100.00
37068;BME280;22982;42.848;25.468;2023-10-13T05:48:19;96744.44;;;7.70;100.00
37068;BME280;22982;42.848;25.468;2023-10-13T05:53:37;96761.22;;;7.85;100.00
37068;BME280;22982;42.848;25.468;2023-10-13T05:58:58;96747.88;;;8.13;100.00
37068;BME280;22982;42.848;25.468;2023-10-13T06:04:19;96753.66;;;8.40;100.00
37068;BME280;22982;42.848;25.468;2023-10-13T06:09:40;96770.91;;;8.84;100.00
37068;BME280;22982;42.848;25.468;2023-10-13T06:15:01;96767.72;;;9.15;100.00
37068;BME280;22982;42.848;25.468;2023-10-13T06:20:23;96768.81;;;9.48;100.00
37068;BME280;22982;42.848;25.468;2023-10-13T06:25:53;96745.88;;;12.89;100.00
37068;BME280;22982;42.848;25.468;2023-10-13T06:31:15;96713.97;;;21.41;61.45
37068;BME280;22982;42.848;25.468;2023-10-13T06:36:24;96704.28;;;25.71;43.71
37068;BME280;22982;42.848;25.468;2023-10-13T06:41:28;96714.03;;;25.33;43.86
37068;BME280;22982;42.848;25.468;2023-10-13T06:46:42;96693.00;;;26.45;41.41
37068;BME280;22982;42.848;25.468;2023-10-13T06:51:46;96689.13;;;27.67;40.86
37068;BME280;22982;42.848;25.468;2023-10-13T06:56:49;96692.59;;;28.69;38.34
37068;BME280;22982;42.848;25.468;2023-10-13T07:01:55;96706.84;;;28.84;39.06
37068;BME280;22982;42.848;25.468;2023-10-13T07:07:24;96696.81;;;28.28;40.02
37068;BME280;22982;42.848;25.468;2023-10-13T07:12:28;96686.16;;;27.98;41.19
37068;BME280;22982;42.848;25.468;2023-10-13T07:17:35;96687.66;;;27.86;41.76
37068;BME280;22982;42.848;25.468;2023-10-13T07:22:42;96700.81;;;28.11;41.85
37068;BME280;22982;42.848;25.468;2023-10-13T07:27:57;96687.38;;;27.59;44.08
37068;BME280;22982;42.848;25.468;2023-10-13T07:33:00;96691.97;;;26.69;45.45
37068;BME280;22982;42.848;25.468;2023-10-13T07:38:03;96689.00;;;27.54;45.35
37068;BME280;22982;42.848;25.468;2023-10-13T07:43:09;96665.88;;;27.29;45.33
37068;BME280;22982;42.848;25.468;2023-10-13T07:48:13;96668.59;;;27.29;43.84
37068;BME280;22982;42.848;25.468;2023-10-13T07:53:26;96657.47;;;28.34;42.41
37068;BME280;22982;42.848;25.468;2023-10-13T07:58:31;96649.31;;;28.27;42.85
37068;BME280;22982;42.848;25.468;2023-10-13T08:03:36;96660.59;;;28.59;41.38
37068;BME280;22982;42.848;25.468;2023-10-13T08:08:40;96623.63;;;27.30;40.82
37068;BME280;22982;42.848;25.468;2023-10-13T08:13:43;96641.34;;;29.10;40.00
37068;BME280;22982;42.848;25.468;2023-10-13T08:19:05;96639.16;;;29.82;36.37
37068;BME280;22982;42.848;25.468;2023-10-13T08:24:10;96633.75;;;28.29;33.47
37068;BME280;22982;42.848;25.468;2023-10-13T08:29:18;96639.69;;;29.57;32.98
37068;BME280;22982;42.848;25.468;2023-10-13T08:34:23;96632.16;;;30.21;33.10
37068;BME280;22982;42.848;25.468;2023-10-13T08:39:27;96636.47;;;29.82;29.68
37068;BME280;22982;42.848;25.468;2023-10-13T08:45:17;96631.72;;;30.11;30.41
37068;BME280;22982;42.848;25.468;2023-10-13T08:50:23;96626.69;;;30.81;29.61
37068;BME280;22982;42.848;25.468;2023-10-13T08:55:44;96632.53;;;30.91;28.05
37068;BME280;22982;42.848;25.468;2023-10-13T09:01:06;96656.09;;;30.38;27.57
37068;BME280;22982;42.848;25.468;2023-10-13T09:06:15;96645.63;;;31.01;27.64
37068;BME280;22982;42.848;25.468;2023-10-13T09:11:22;96648.19;;;31.35;27.81
37068;BME280;22982;42.848;25.468;2023-10-13T09:16:29;96658.19;;;31.86;25.14
37068;BME280;22982;42.848;25.468;2023-10-13T09:21:42;96637.13;;;31.81;26.26
37068;BME280;22982;42.848;25.468;2023-10-13T09:26:44;96652.47;;;31.94;25.98
37068;BME280;22982;42.848;25.468;2023-10-13T09:32:03;96626.03;;;30.86;26.57
37068;BME280;22982;42.848;25.468;2023-10-13T09:37:06;96634.69;;;31.73;24.33
37068;BME280;22982;42.848;25.468;2023-10-13T09:42:13;96646.38;;;31.74;25.92
37068;BME280;22982;42.848;25.468;2023-10-13T09:47:22;96633.72;;;32.24;24.66
37068;BME280;22982;42.848;25.468;2023-10-13T09:52:43;96614.00;;;31.40;26.02
37068;BME280;22982;42.848;25.468;2023-10-13T09:57:53;96628.34;;;30.96;26.12
37068;BME280;22982;42.848;25.468;2023-10-13T10:03:01;96616.72;;;30.62;26.68
37068;BME280;22982;42.848;25.468;2023-10-13T10:08:24;96614.03;;;30.28;26.91
37068;BME280;22982;42.848;25.468;2023-10-13T10:18:45;96604.97;;;31.08;25.58
37068;BME280;22982;42.848;25.468;2023-10-13T10:23:52;96600.50;;;30.62;25.99
37068;BME280;22982;42.848;25.468;2023-10-13T10:28:55;96605.19;;;31.00;26.07
37068;BME280;22982;42.848;25.468;2023-10-13T10:33:58;96598.19;;;30.72;25.84
37068;BME280;22982;42.848;25.468;2023-10-13T10:39:01;96584.06;;;30.16;26.70
37068;BME280;22982;42.848;25.468;2023-10-13T10:44:15;96576.22;;;29.20;27.26
37068;BME280;22982;42.848;25.468;2023-10-13T10:49:39;96611.59;;;28.05;28.90
37068;BME280;22982;42.848;25.468;2023-10-13T10:54:44;96577.25;;;27.49;29.15
37068;BME280;22982;42.848;25.468;2023-10-13T10:59:53;96614.13;;;27.49;29.94
37068;BME280;22982;42.848;25.468;2023-10-13T11:05:13;96604.34;;;27.26;29.66
37068;BME280;22982;42.848;25.468;2023-10-13T11:10:22;96602.22;;;27.80;27.66
37068;BME280;22982;42.848;25.468;2023-10-13T11:15:41;96610.84;;;27.75;28.80
37068;BME280;22982;42.848;25.468;2023-10-13T11:20:47;96596.38;;;27.55;27.87
37068;BME280;22982;42.848;25.468;2023-10-13T11:25:57;96612.66;;;27.89;28.30
37068;BME280;22982;42.848;25.468;2023-10-13T11:31:01;96586.09;;;27.43;28.11
37068;BME280;22982;42.848;25.468;2023-10-13T11:36:13;96582.22;;;26.95;29.76
37068;BME280;22982;42.848;25.468;2023-10-13T11:41:27;96603.03;;;27.22;29.99
37068;BME280;22982;42.848;25.468;2023-10-13T11:46:40;96571.38;;;27.61;30.47
37068;BME280;22982;42.848;25.468;2023-10-13T11:51:50;96588.81;;;27.43;30.36
37068;BME280;22982;42.848;25.468;2023-10-13T11:56:53;96564.94;;;27.40;31.27
37068;BME280;22982;42.848;25.468;2023-10-13T12:02:00;96555.72;;;26.62;32.22
37068;BME280;22982;42.848;25.468;2023-10-13T12:07:12;96570.44;;;27.17;32.55
37068;BME280;22982;42.848;25.468;2023-10-13T12:12:29;96565.97;;;27.24;32.18
37068;BME280;22982;42.848;25.468;2023-10-13T12:17:42;96568.88;;;27.59;32.00
37068;BME280;22982;42.848;25.468;2023-10-13T12:22:47;96554.88;;;27.49;32.55
37068;BME280;22982;42.848;25.468;2023-10-13T12:27:59;96559.75;;;27.39;32.11
37068;BME280;22982;42.848;25.468;2023-10-13T12:33:21;96570.53;;;27.24;35.67
37068;BME280;22982;42.848;25.468;2023-10-13T12:38:26;96574.69;;;26.60;34.79
37068;BME280;22982;42.848;25.468;2023-10-13T12:43:39;96553.91;;;26.39;34.88
37068;BME280;22982;42.848;25.468;2023-10-13T12:49:00;96542.22;;;26.17;34.69
37068;BME280;22982;42.848;25.468;2023-10-13T12:54:16;96563.63;;;26.10;35.67
37068;BME280;22982;42.848;25.468;2023-10-13T12:59:37;96567.34;;;26.09;36.17
37068;BME280;22982;42.848;25.468;2023-10-13T13:10:38;96579.69;;;25.72;37.00
37068;BME280;22982;42.848;25.468;2023-10-13T13:15:41;96558.78;;;25.45;37.37
37068;BME280;22982;42.848;25.468;2023-10-13T13:20:45;96561.09;;;25.25;37.99
37068;BME280;22982;42.848;25.468;2023-10-13T13:26:00;96548.00;;;25.21;38.69
37068;BME280;22982;42.848;25.468;2023-10-13T13:31:02;96564.25;;;25.28;38.64
37068;BME280;22982;42.848;25.468;2023-10-13T13:36:11;96568.88;;;25.43;38.54
37068;BME280;22982;42.848;25.468;2023-10-13T13:41:18;96556.47;;;25.10;38.46
37068;BME280;22982;42.848;25.468;2023-10-13T13:46:23;96577.69;;;25.28;38.98
37068;BME280;22982;42.848;25.468;2023-10-13T13:51:35;96583.06;;;25.20;39.51
37068;BME280;22982;42.848;25.468;2023-10-13T13:56:40;96577.19;;;25.16;39.49
37068;BME280;22982;42.848;25.468;2023-10-13T14:01:43;96580.03;;;24.92;39.30
37068;BME280;22982;42.848;25.468;2023-10-13T14:06:46;96563.91;;;24.44;39.67
37068;BME280;22982;42.848;25.468;2023-10-13T14:11:50;96548.50;;;24.46;39.68
37068;BME280;22982;42.848;25.468;2023-10-13T14:16:55;96576.97;;;24.47;40.09
37068;BME280;22982;42.848;25.468;2023-10-13T14:22:10;96577.41;;;24.03;40.80
37068;BME280;22982;42.848;25.468;2023-10-13T14:27:15;96594.66;;;24.08;44.82
37068;BME280;22982;42.848;25.468;2023-10-13T14:32:22;96604.03;;;23.88;45.20
37068;BME280;22982;42.848;25.468;2023-10-13T14:37:29;96594.13;;;23.47;48.57
37068;BME280;22982;42.848;25.468;2023-10-13T14:42:33;96598.91;;;23.19;49.67
37068;BME280;22982;42.848;25.468;2023-10-13T14:47:37;96577.84;;;22.73;57.88
37068;BME280;22982;42.848;25.468;2023-10-13T14:52:41;96609.03;;;22.30;64.63
37068;BME280;22982;42.848;25.468;2023-10-13T14:57:49;96584.09;;;22.04;67.65
37068;BME280;22982;42.848;25.468;2023-10-13T15:02:54;96607.72;;;21.72;74.28
37068;BME280;22982;42.848;25.468;2023-10-13T15:07:58;96613.38;;;21.51;79.23
37068;BME280;22982;42.848;25.468;2023-10-13T15:13:00;96614.84;;;21.18;81.67
37068;BME280;22982;42.848;25.468;2023-10-13T15:18:04;96604.50;;;20.50;93.37
37068;BME280;22982;42.848;25.468;2023-10-13T15:23:07;96610.50;;;20.24;95.48
37068;BME280;22982;42.848;25.468;2023-10-13T15:28:10;96629.03;;;19.96;100.00
37068;BME280;22982;42.848;25.468;2023-10-13T15:33:12;96635.75;;;19.61;100.00
37068;BME280;22982;42.848;25.468;2023-10-13T15:38:16;96609.28;;;19.30;100.00
37068;BME280;22982;42.848;25.468;2023-10-13T15:43:18;96624.34;;;19.01;100.00
37068;BME280;22982;42.848;25.468;2023-10-13T15:48:20;96625.94;;;18.82;100.00
37068;BME280;22982;42.848;25.468;2023-10-13T15:53:26;96626.94;;;18.50;100.00
37068;BME280;22982;42.848;25.468;2023-10-13T15:58:29;96661.00;;;18.45;100.00
37068;BME280;22982;42.848;25.468;2023-10-13T16:03:32;96647.34;;;17.87;100.00
37068;BME280;22982;42.848;25.468;2023-10-13T16:08:34;96656.75;;;17.79;100.00
37068;BME280;22982;42.848;25.468;2023-10-13T16:13:37;96659.94;;;17.73;100.00
37068;BME280;22982;42.848;25.468;2023-10-13T16:18:40;96666.97;;;17.63;100.00
37068;BME280;22982;42.848;25.468;2023-10-13T16:23:48;96672.91;;;17.55;100.00
37068;BME280;22982;42.848;25.468;2023-10-13T16:28:51;96681.50;;;17.48;100.00
37068;BME280;22982;42.848;25.468;2023-10-13T16:34:00;96690.31;;;17.37;100.00
37068;BME280;22982;42.848;25.468;2023-10-13T16:39:04;96689.16;;;17.07;100.00
37068;BME280;22982;42.848;25.468;2023-10-13T16:44:11;96705.91;;;16.74;100.00
37068;BME280;22982;42.848;25.468;2023-10-13T16:49:14;96697.47;;;16.80;100.00
37068;BME280;22982;42.848;25.468;2023-10-13T16:54:17;96690.97;;;16.73;100.00
37068;BME280;22982;42.848;25.468;2023-10-13T16:59:23;96702.28;;;16.75;100.00
37068;BME280;22982;42.848;25.468;2023-10-13T17:04:28;96709.97;;;16.78;100.00
37068;BME280;22982;42.848;25.468;2023-10-13T17:09:32;96700.94;;;16.69;100.00
37068;BME280;22982;42.848;25.468;2023-10-13T17:14:35;96701.56;;;16.61;100.00
37068;BME280;22982;42.848;25.468;2023-10-13T17:19:39;96722.19;;;16.22;100.00
37068;BME280;22982;42.848;25.468;2023-10-13T17:24:41;96719.50;;;16.11;100.00
37068;BME280;22982;42.848;25.468;2023-10-13T17:29:44;96718.56;;;16.12;100.00
37068;BME280;22982;42.848;25.468;2023-10-13T17:34:47;96715.09;;;16.23;100.00
37068;BME280;22982;42.848;25.468;2023-10-13T17:39:50;96724.97;;;16.21;100.00
37068;BME280;22982;42.848;25.468;2023-10-13T17:44:54;96725.06;;;16.19;100.00
37068;BME280;22982;42.848;25.468;2023-10-13T17:49:56;96721.94;;;16.14;100.00
37068;BME280;22982;42.848;25.468;2023-10-13T17:55:06;96692.22;;;15.75;100.00
37068;BME280;22982;42.848;25.468;2023-10-13T18:00:08;96717.03;;;15.85;100.00
37068;BME280;22982;42.848;25.468;2023-10-13T18:05:18;96728.94;;;15.91;100.00
37068;BME280;22982;42.848;25.468;2023-10-13T18:10:20;96732.38;;;15.80;100.00
37068;BME280;22982;42.848;25.468;2023-10-13T18:15:27;96737.53;;;15.58;100.00
37068;BME280;22982;42.848;25.468;2023-10-13T18:20:31;96713.13;;;15.54;100.00
37068;BME280;22982;42.848;25.468;2023-10-13T18:25:38;96724.13;;;15.48;100.00
37068;BME280;22982;42.848;25.468;2023-10-13T18:30:44;96723.88;;;15.40;100.00
37068;BME280;22982;42.848;25.468;2023-10-13T18:35:48;96717.22;;;14.97;100.00
37068;BME280;22982;42.848;25.468;2023-10-13T18:40:55;96737.75;;;14.68;100.00
37068;BME280;22982;42.848;25.468;2023-10-13T18:46:02;96741.00;;;14.71;100.00
37068;BME280;22982;42.848;25.468;2023-10-13T18:51:15;96747.41;;;14.42;100.00
37068;BME280;22982;42.848;25.468;2023-10-13T18:56:20;96745.38;;;14.20;100.00
37068;BME280;22982;42.848;25.468;2023-10-13T19:01:24;96739.53;;;14.02;100.00
37068;BME280;22982;42.848;25.468;2023-10-13T19:06:33;96752.44;;;14.06;100.00
37068;BME280;22982;42.848;25.468;2023-10-13T19:11:37;96756.09;;;14.04;100.00
37068;BME280;22982;42.848;25.468;2023-10-13T19:16:48;96735.09;;;13.62;100.00
37068;BME280;22982;42.848;25.468;2023-10-13T19:21:51;96746.78;;;13.58;100.00
37068;BME280;22982;42.848;25.468;2023-10-13T19:26:55;96761.88;;;13.56;100.00
37068;BME280;22982;42.848;25.468;2023-10-13T19:31:57;96750.19;;;13.04;100.00
37068;BME280;22982;42.848;25.468;2023-10-13T19:37:02;96762.91;;;12.97;100.00
37068;BME280;22982;42.848;25.468;2023-10-13T19:42:05;96764.00;;;12.79;100.00
37068;BME280;22982;42.848;25.468;2023-10-13T19:47:09;96778.94;;;12.64;100.00
37068;BME280;22982;42.848;25.468;2023-10-13T19:52:15;96765.63;;;12.67;100.00
37068;BME280;22982;42.848;25.468;2023-10-13T19:57:24;96766.94;;;12.60;100.00
37068;BME280;22982;42.848;25.468;2023-10-13T20:02:28;96765.94;;;12.47;100.00
37068;BME280;22982;42.848;25.468;2023-10-13T20:07:33;96773.38;;;12.40;100.00
37068;BME280;22982;42.848;25.468;2023-10-13T20:12:36;96767.25;;;11.95;100.00
37068;BME280;22982;42.848;25.468;2023-10-13T20:17:43;96758.78;;;11.74;100.00
37068;BME280;22982;42.848;25.468;2023-10-13T20:22:46;96782.28;;;11.93;100.00
37068;BME280;22982;42.848;25.468;2023-10-13T20:27:49;96780.41;;;11.79;100.00
37068;BME280;22982;42.848;25.468;2023-10-13T20:32:55;96776.72;;;11.51;100.00
37068;BME280;22982;42.848;25.468;2023-10-13T20:37:58;96782.38;;;11.59;100.00
37068;BME280;22982;42.848;25.468;2023-10-13T20:43:02;96782.59;;;11.71;100.00
37068;BME280;22982;42.848;25.468;2023-10-13T20:48:05;96773.97;;;11.68;100.00
37068;BME280;22982;42.848;25.468;2023-10-13T20:58:59;96782.13;;;11.48;100.00
37068;BME280;22982;42.848;25.468;2023-10-13T21:04:02;96782.22;;;11.30;100.00
37068;BME280;22982;42.848;25.468;2023-10-13T21:09:05;96761.41;;;11.27;100.00
37068;BME280;22982;42.848;25.468;2023-10-13T21:14:08;96773.06;;;11.38;100.00
37068;BME280;22982;42.848;25.468;2023-10-13T21:19:12;96752.66;;;11.27;100.00
37068;BME280;22982;42.848;25.468;2023-10-13T21:24:15;96759.44;;;11.15;100.00
37068;BME280;22982;42.848;25.468;2023-10-13T21:29:20;96756.88;;;10.98;100.00
37068;BME280;22982;42.848;25.468;2023-10-13T21:34:22;96756.84;;;10.82;100.00
37068;BME280;22982;42.848;25.468;2023-10-13T21:39:26;96757.53;;;10.85;100.00
37068;BME280;22982;42.848;25.468;2023-10-13T21:44:48;96760.75;;;10.90;100.00
37068;BME280;22982;42.848;25.468;2023-10-13T21:49:58;96755.84;;;10.84;100.00
37068;BME280;22982;42.848;25.468;2023-10-13T21:55:00;96753.84;;;10.89;100.00
37068;BME280;22982;42.848;25.468;2023-10-13T22:00:04;96740.28;;;10.81;100.00
37068;BME280;22982;42.848;25.468;2023-10-13T22:05:26;96742.44;;;10.73;100.00
37068;BME280;22982;42.848;25.468;2023-10-13T22:10:29;96735.53;;;10.72;100.00
37068;BME280;22982;42.848;25.468;2023-10-13T22:15:34;96733.13;;;10.51;100.00
37068;BME280;22982;42.848;25.468;2023-10-13T22:20:42;96748.72;;;10.37;100.00
37068;BME280;22982;42.848;25.468;2023-10-13T22:25:46;96742.69;;;10.35;100.00
37068;BME280;22982;42.848;25.468;2023-10-13T22:30:49;96745.69;;;10.27;100.00
37068;BME280;22982;42.848;25.468;2023-10-13T22:35:52;96733.88;;;10.19;100.00
37068;BME280;22982;42.848;25.468;2023-10-13T22:40:56;96740.50;;;10.26;100.00
37068;BME280;22982;42.848;25.468;2023-10-13T22:45:59;96749.13;;;10.28;100.00
37068;BME280;22982;42.848;25.468;2023-10-13T22:51:03;96718.50;;;9.95;100.00
37068;BME280;22982;42.848;25.468;2023-10-13T22:56:11;96743.09;;;9.92;100.00
37068;BME280;22982;42.848;25.468;2023-10-13T23:01:13;96749.31;;;9.90;100.00
37068;BME280;22982;42.848;25.468;2023-10-13T23:06:24;96736.38;;;9.87;100.00
37068;BME280;22982;42.848;25.468;2023-10-13T23:11:32;96745.81;;;9.72;100.00
37068;BME280;22982;42.848;25.468;2023-10-13T23:16:36;96732.22;;;9.83;100.00
37068;BME280;22982;42.848;25.468;2023-10-13T23:21:39;96725.28;;;9.64;100.00
37068;BME280;22982;42.848;25.468;2023-10-13T23:26:41;96741.50;;;9.53;100.00
37068;BME280;22982;42.848;25.468;2023-10-13T23:31:44;96730.41;;;9.48;100.00
37068;BME280;22982;42.848;25.468;2023-10-13T23:36:46;96715.56;;;9.49;100.00
37068;BME280;22982;42.848;25.468;2023-10-13T23:41:50;96728.72;;;9.65;100.00
37068;BME280;22982;42.848;25.468;2023-10-13T23:47:01;96727.13;;;9.62;100.00
37068;BME280;22982;42.848;25.468;2023-10-13T23:52:04;96723.78;;;9.41;100.00
37068;BME280;22982;42.848;25.468;2023-10-13T23:57:08;96720.69;;;9.33;100.00
